createdAt,value
2022-08-28T00:00:02.271Z,5.37
2022-08-28T00:02:29.056Z,4.33
2022-08-28T00:04:55.924Z,5.03
2022-08-28T00:07:22.671Z,5.17
2022-08-28T00:09:49.392Z,7.53
2022-08-28T00:12:16.107Z,7.33
2022-08-28T00:14:42.930Z,5.37
2022-08-28T00:17:09.745Z,5.03
2022-08-28T00:19:38.724Z,5.33
2022-08-28T00:22:07.381Z,5.43
2022-08-28T00:24:34.568Z,5.30
2022-08-28T00:27:20.389Z,4.83
2022-08-28T00:29:47.402Z,5.10
2022-08-28T00:32:14.161Z,6.33
2022-08-28T00:34:41.003Z,6.07
2022-08-28T00:37:07.938Z,6.60
2022-08-28T00:39:34.721Z,7.10
2022-08-28T00:42:01.588Z,6.13
2022-08-28T00:44:28.917Z,6.10
2022-08-28T00:46:57.688Z,5.17
2022-08-28T00:49:28.300Z,7.63
2022-08-28T00:52:07.974Z,5.80
2022-08-28T00:54:53.505Z,5.60
2022-08-28T00:57:36.359Z,6.83
2022-08-28T01:00:08.780Z,5.50
2022-08-28T01:02:35.555Z,7.83
2022-08-28T01:05:02.479Z,5.40
2022-08-28T01:07:29.628Z,8.23
2022-08-28T01:09:57.114Z,5.37
2022-08-28T01:12:28.204Z,5.10
2022-08-28T01:14:59.807Z,5.57
2022-08-28T01:17:29.636Z,6.70
2022-08-28T01:20:02.883Z,5.70
2022-08-28T01:22:39.370Z,5.03
2022-08-28T01:25:11.342Z,5.17
2022-08-28T01:27:38.658Z,5.23
2022-08-28T01:30:06.468Z,5.43
2022-08-28T01:32:42.529Z,6.70
2022-08-28T01:35:13.841Z,5.10
2022-08-28T01:37:40.993Z,6.30
2022-08-28T01:40:09.752Z,4.50
2022-08-28T01:42:39.383Z,4.77
2022-08-28T01:45:11.026Z,6.83
2022-08-28T01:47:42.905Z,5.13
2022-08-28T01:50:12.142Z,5.60
2022-08-28T01:52:39.681Z,5.07
2022-08-28T01:55:07.887Z,4.40
2022-08-28T01:57:36.030Z,5.73
2022-08-28T02:00:03.453Z,4.93
2022-08-28T02:02:31.706Z,5.73
2022-08-28T02:04:58.449Z,9.30
2022-08-28T02:07:25.145Z,5.23
2022-08-28T02:09:52.008Z,4.90
2022-08-28T02:12:20.625Z,4.93
2022-08-28T02:14:47.421Z,5.97
2022-08-28T02:17:14.276Z,5.60
2022-08-28T02:19:41.006Z,4.77
2022-08-28T02:22:11.940Z,5.00
2022-08-28T02:24:38.875Z,5.83
2022-08-28T02:27:06.156Z,5.40
2022-08-28T02:29:33.536Z,5.60
2022-08-28T02:32:00.310Z,5.47
2022-08-28T02:34:27.059Z,5.47
2022-08-28T02:36:53.795Z,6.40
2022-08-28T02:39:20.531Z,5.53
2022-08-28T02:41:47.275Z,6.50
2022-08-28T02:44:13.981Z,6.60
2022-08-28T02:46:40.704Z,6.47
2022-08-28T02:49:07.465Z,5.37
2022-08-28T02:51:34.710Z,5.33
2022-08-28T02:54:02.325Z,6.30
2022-08-28T02:56:29.232Z,9.30
2022-08-28T02:58:56.639Z,5.17
2022-08-28T03:01:23.608Z,6.17
2022-08-28T03:03:50.403Z,6.13
2022-08-28T03:06:17.155Z,5.87
2022-08-28T03:08:44.640Z,7.13
2022-08-28T03:11:12.168Z,8.97
2022-08-28T03:13:39.044Z,6.50
2022-08-28T03:16:06.584Z,5.73
2022-08-28T03:18:33.532Z,5.53
2022-08-28T03:21:00.504Z,5.93
2022-08-28T03:23:27.422Z,6.97
2022-08-28T03:25:54.117Z,5.47
2022-08-28T03:28:20.993Z,5.60
2022-08-28T03:30:48.221Z,6.43
2022-08-28T03:33:15.265Z,6.80
2022-08-28T03:35:42.001Z,5.40
2022-08-28T03:38:10.004Z,6.13
2022-08-28T03:40:40.396Z,7.00
2022-08-28T03:43:07.221Z,8.33
2022-08-28T03:45:34.022Z,7.73
2022-08-28T03:48:00.869Z,6.87
2022-08-28T03:50:27.854Z,7.23
2022-08-28T03:52:56.363Z,7.33
2022-08-28T03:55:23.100Z,7.07
2022-08-28T03:57:51.619Z,6.53
2022-08-28T04:00:20.397Z,7.10
2022-08-28T04:02:47.182Z,6.93
2022-08-28T04:05:14.585Z,6.60
2022-08-28T04:07:41.322Z,7.53
2022-08-28T04:10:08.696Z,8.03
2022-08-28T04:12:36.931Z,7.13
2022-08-28T04:15:06.833Z,7.10
2022-08-28T04:17:34.080Z,8.10
2022-08-28T04:20:00.853Z,8.03
2022-08-28T04:22:29.351Z,10.10
2022-08-28T04:24:56.147Z,7.50
2022-08-28T04:27:22.980Z,8.40
2022-08-28T04:29:49.927Z,8.20
2022-08-28T04:32:16.786Z,8.37
2022-08-28T04:34:43.797Z,7.30
2022-08-28T04:37:10.587Z,6.60
2022-08-28T04:39:37.635Z,7.00
2022-08-28T04:42:04.631Z,7.00
2022-08-28T04:44:32.249Z,8.30
2022-08-28T04:46:59.044Z,6.63
2022-08-28T04:49:25.862Z,7.90
2022-08-28T04:51:52.965Z,7.50
2022-08-28T04:54:20.318Z,6.97
2022-08-28T04:56:47.122Z,7.40
2022-08-28T04:59:13.973Z,6.50
2022-08-28T05:01:42.631Z,6.97
2022-08-28T05:04:11.635Z,7.23
2022-08-28T05:06:46.129Z,6.67
2022-08-28T05:09:18.295Z,7.73
2022-08-28T05:11:46.373Z,7.30
2022-08-28T05:14:16.322Z,7.30
2022-08-28T05:16:49.508Z,6.77
2022-08-28T05:19:17.715Z,7.33
2022-08-28T05:21:44.532Z,6.57
2022-08-28T05:24:12.639Z,8.30
2022-08-28T05:26:40.930Z,7.97
2022-08-28T05:29:08.603Z,7.53
2022-08-28T05:31:35.890Z,7.90
2022-08-28T05:34:02.917Z,7.10
2022-08-28T05:36:33.526Z,7.40
2022-08-28T05:39:02.803Z,7.13
2022-08-28T05:41:30.765Z,6.87
2022-08-28T05:44:07.411Z,7.57
2022-08-28T05:46:36.070Z,8.20
2022-08-28T05:49:06.623Z,7.53
2022-08-28T05:51:36.413Z,6.80
2022-08-28T05:54:03.835Z,7.63
2022-08-28T05:56:34.597Z,8.43
2022-08-28T05:59:02.819Z,7.07
2022-08-28T06:01:31.830Z,7.60
2022-08-28T06:04:05.238Z,6.57
2022-08-28T06:06:37.099Z,6.60
2022-08-28T06:09:10.611Z,6.33
2022-08-28T06:11:44.013Z,6.53
2022-08-28T06:14:13.865Z,6.43
2022-08-28T06:16:43.837Z,6.17
2022-08-28T06:19:11.723Z,7.87
2022-08-28T06:21:41.237Z,7.50
2022-08-28T06:24:09.331Z,6.73
2022-08-28T06:26:36.486Z,6.27
2022-08-28T06:29:04.893Z,7.63
2022-08-28T06:31:33.716Z,7.47
2022-08-28T06:34:01.530Z,6.57
2022-08-28T06:36:29.980Z,8.30
2022-08-28T06:39:00.646Z,6.70
2022-08-28T06:41:28.297Z,6.73
2022-08-28T06:43:55.631Z,6.27
2022-08-28T06:46:23.274Z,6.40
2022-08-28T06:48:50.480Z,6.50
2022-08-28T06:51:17.518Z,5.37
2022-08-28T06:53:45.833Z,8.53
2022-08-28T06:56:25.926Z,6.50
2022-08-28T06:58:56.643Z,6.60
2022-08-28T07:01:32.972Z,7.47
2022-08-28T07:04:04.035Z,7.07
2022-08-28T07:06:34.288Z,7.40
2022-08-28T07:09:01.668Z,6.70
2022-08-28T07:11:31.502Z,5.97
2022-08-28T07:13:59.508Z,7.07
2022-08-28T07:16:30.049Z,7.67
2022-08-28T07:18:57.550Z,6.97
2022-08-28T07:21:25.586Z,6.43
2022-08-28T07:23:52.533Z,7.17
2022-08-28T07:26:22.925Z,6.37
2022-08-28T07:28:51.244Z,7.20
2022-08-28T07:31:26.244Z,7.63
2022-08-28T07:33:54.813Z,7.67
2022-08-28T07:36:29.132Z,7.30
2022-08-28T07:38:58.242Z,7.03
2022-08-28T07:41:31.326Z,6.43
2022-08-28T07:44:17.651Z,7.07
2022-08-28T07:46:45.416Z,5.57
2022-08-28T07:49:15.518Z,11.13
2022-08-28T07:51:42.334Z,6.73
2022-08-28T07:54:15.732Z,5.43
2022-08-28T07:56:45.530Z,7.23
2022-08-28T07:59:16.649Z,6.67
2022-08-28T08:01:47.009Z,8.07
2022-08-28T08:04:16.089Z,8.60
2022-08-28T08:06:44.326Z,8.20
2022-08-28T08:09:14.166Z,7.43
2022-08-28T08:11:42.097Z,7.90
2022-08-28T08:14:09.640Z,8.77
2022-08-28T08:16:39.137Z,9.10
2022-08-28T08:19:09.599Z,8.63
2022-08-28T08:21:36.761Z,8.60
2022-08-28T08:24:04.058Z,10.53
2022-08-28T08:26:31.228Z,10.73
2022-08-28T08:28:59.511Z,8.30
2022-08-28T08:31:32.909Z,8.77
2022-08-28T08:34:02.320Z,8.67
2022-08-28T08:36:29.794Z,10.20
2022-08-28T08:38:59.254Z,9.50
2022-08-28T08:41:30.336Z,9.30
2022-08-28T08:44:04.040Z,9.27
2022-08-28T08:46:33.234Z,9.33
2022-08-28T08:49:02.856Z,10.97
2022-08-28T08:51:40.160Z,9.57
2022-08-28T08:54:10.649Z,9.67
2022-08-28T08:56:39.200Z,10.73
2022-08-28T08:59:08.716Z,10.57
2022-08-28T09:01:39.098Z,9.67
2022-08-28T09:04:22.631Z,11.53
2022-08-28T09:06:51.035Z,9.87
2022-08-28T09:09:20.807Z,9.57
2022-08-28T09:11:59.417Z,9.40
2022-08-28T09:14:38.289Z,7.90
2022-08-28T09:17:06.744Z,7.03
2022-08-28T09:19:33.876Z,9.90
2022-08-28T09:22:01.361Z,7.50
2022-08-28T09:24:33.770Z,7.40
2022-08-28T09:27:37.686Z,7.33
2022-08-28T09:30:09.336Z,7.07
2022-08-28T09:32:44.485Z,5.77
2022-08-28T09:35:29.402Z,5.57
2022-08-28T09:38:16.020Z,6.17
2022-08-28T09:41:01.490Z,6.07
2022-08-28T09:43:30.457Z,5.67
2022-08-28T09:46:01.748Z,6.33
2022-08-28T09:48:36.168Z,4.93
2022-08-28T09:51:06.176Z,5.18
2022-08-28T09:53:34.859Z,5.03
2022-08-28T09:56:20.022Z,4.63
2022-08-28T09:58:51.011Z,4.93
2022-08-28T10:01:38.542Z,4.32
2022-08-28T10:04:07.892Z,3.63
2022-08-28T10:06:37.165Z,2.50
2022-08-28T10:09:46.719Z,2.40
2022-08-28T10:12:28.577Z,2.90
2022-08-28T10:15:16.984Z,2.40
2022-08-28T10:18:11.973Z,2.42
2022-08-28T10:21:31.644Z,3.33
2022-08-28T10:24:13.335Z,3.43
2022-08-28T10:27:01.188Z,2.07
2022-08-28T10:29:49.816Z,2.37
2022-08-28T10:32:40.942Z,2.70
2022-08-28T10:35:14.045Z,2.80
2022-08-28T10:37:41.742Z,3.67
2022-08-28T10:40:18.430Z,3.27
2022-08-28T10:42:51.808Z,3.40
2022-08-28T10:45:24.993Z,3.60
2022-08-28T10:48:17.531Z,4.13
2022-08-28T10:50:51.926Z,6.03
2022-08-28T10:53:24.015Z,3.30
2022-08-28T10:56:00.282Z,4.17
2022-08-28T10:58:27.759Z,4.30
2022-08-28T11:01:01.064Z,4.00
2022-08-28T11:03:34.824Z,3.83
2022-08-28T11:06:11.513Z,3.57
2022-08-28T11:08:39.799Z,4.00
2022-08-28T11:11:13.193Z,4.13
2022-08-28T11:13:53.541Z,3.67
2022-08-28T11:16:30.168Z,3.00
2022-08-28T11:19:03.006Z,3.17
2022-08-28T11:21:42.431Z,3.40
2022-08-28T11:24:25.155Z,3.30
2022-08-28T11:27:21.443Z,3.73
2022-08-28T11:30:11.193Z,3.60
2022-08-28T11:32:41.461Z,4.70
2022-08-28T11:35:43.860Z,3.80
2022-08-28T11:38:11.316Z,3.70
2022-08-28T11:40:44.213Z,3.60
2022-08-28T11:43:17.021Z,3.30
2022-08-28T11:45:47.381Z,3.83
2022-08-28T11:48:25.895Z,3.60
2022-08-28T11:51:18.939Z,3.83
2022-08-28T11:53:58.836Z,4.10
2022-08-28T11:56:49.713Z,4.90
2022-08-28T11:59:43.336Z,4.13
2022-08-28T12:02:40.612Z,4.30
2022-08-28T12:05:12.181Z,5.37
2022-08-28T12:07:44.664Z,5.40
2022-08-28T12:10:20.264Z,4.87
2022-08-28T12:12:47.012Z,5.07
2022-08-28T12:15:38.809Z,4.20
2022-08-28T12:18:42.692Z,4.07
2022-08-28T12:21:25.901Z,4.60
2022-08-28T12:24:05.364Z,3.97
2022-08-28T12:26:39.851Z,4.40
2022-08-28T12:29:16.736Z,4.00
2022-08-28T12:32:14.815Z,4.37
2022-08-28T12:34:44.057Z,4.40
2022-08-28T12:37:28.450Z,4.43
2022-08-28T12:39:59.125Z,4.37
2022-08-28T12:42:32.590Z,4.40
2022-08-28T12:45:05.860Z,4.43
2022-08-28T12:47:34.542Z,5.17
2022-08-28T12:50:19.920Z,4.83
2022-08-28T12:52:52.616Z,5.10
2022-08-28T12:55:24.335Z,4.63
2022-08-28T12:57:52.476Z,5.00
2022-08-28T13:00:32.838Z,4.20
2022-08-28T13:03:00.562Z,4.47
2022-08-28T13:05:39.628Z,4.10
2022-08-28T13:08:09.842Z,4.27
2022-08-28T13:10:47.809Z,4.63
2022-08-28T13:13:38.645Z,5.00
2022-08-28T13:16:11.231Z,4.90
2022-08-28T13:19:03.664Z,3.83
2022-08-28T13:21:34.846Z,5.10
2022-08-28T13:24:22.062Z,5.27
2022-08-28T13:27:00.700Z,7.13
2022-08-28T13:29:28.016Z,4.73
2022-08-28T13:32:08.079Z,5.50
2022-08-28T13:34:37.513Z,4.13
2022-08-28T13:37:17.484Z,5.53
2022-08-28T13:39:47.719Z,4.70
2022-08-28T13:42:16.930Z,4.77
2022-08-28T13:44:55.077Z,4.27
2022-08-28T13:47:21.997Z,4.37
2022-08-28T13:49:49.062Z,4.83
2022-08-28T13:52:16.226Z,4.00
2022-08-28T13:54:45.288Z,4.00
2022-08-28T13:57:13.660Z,4.30
2022-08-28T13:59:41.222Z,4.83
2022-08-28T14:02:30.033Z,4.70
2022-08-28T14:04:56.900Z,3.80
2022-08-28T14:07:23.724Z,4.43
2022-08-28T14:09:55.537Z,4.47
2022-08-28T14:12:23.220Z,4.13
2022-08-28T14:14:59.336Z,4.47
2022-08-28T14:17:26.098Z,4.53
2022-08-28T14:19:52.870Z,5.00
2022-08-28T14:22:19.602Z,5.30
2022-08-28T14:24:46.806Z,6.10
2022-08-28T14:27:13.548Z,5.20
2022-08-28T14:29:40.282Z,4.87
2022-08-28T14:32:07.641Z,4.73
2022-08-28T14:34:34.755Z,4.77
2022-08-28T14:37:01.872Z,5.33
2022-08-28T14:39:29.116Z,5.60
2022-08-28T14:41:55.980Z,7.03
2022-08-28T14:44:24.388Z,4.97
2022-08-28T14:46:56.996Z,5.63
2022-08-28T14:49:25.036Z,6.03
2022-08-28T14:51:52.788Z,5.60
2022-08-28T14:54:21.568Z,5.80
2022-08-28T14:56:48.940Z,6.13
2022-08-28T14:59:24.862Z,5.70
2022-08-28T15:01:53.151Z,5.80
2022-08-28T15:04:23.441Z,7.93
2022-08-28T15:06:54.940Z,5.93
2022-08-28T15:09:21.687Z,7.90
2022-08-28T15:11:48.474Z,5.57
2022-08-28T15:14:15.207Z,7.23
2022-08-28T15:16:45.237Z,6.10
2022-08-28T15:19:15.728Z,6.87
2022-08-28T15:21:49.474Z,5.70
2022-08-28T15:24:18.830Z,6.50
2022-08-28T15:26:45.678Z,7.27
2022-08-28T15:29:12.829Z,7.30
2022-08-28T15:31:43.299Z,6.47
2022-08-28T15:34:18.866Z,6.87
2022-08-28T15:36:52.840Z,6.40
2022-08-28T15:39:41.643Z,6.73
2022-08-28T15:42:08.544Z,6.90
2022-08-28T15:44:35.538Z,5.93
2022-08-28T15:47:04.842Z,6.07
2022-08-28T15:49:43.327Z,6.43
2022-08-28T15:52:15.744Z,6.10
2022-08-28T15:54:42.898Z,6.80
2022-08-28T15:57:09.956Z,4.90
2022-08-28T15:59:48.991Z,6.30
2022-08-28T16:02:21.369Z,6.20
2022-08-28T16:04:48.548Z,5.97
2022-08-28T16:07:15.573Z,7.37
2022-08-28T16:09:42.352Z,6.40
2022-08-28T16:12:09.125Z,6.77
2022-08-28T16:14:36.210Z,6.30
2022-08-28T16:17:05.932Z,7.30
2022-08-28T16:19:40.838Z,6.33
2022-08-28T16:22:09.920Z,6.40
2022-08-28T16:24:36.984Z,7.17
2022-08-28T16:27:04.481Z,7.10
2022-08-28T16:29:33.308Z,6.93
2022-08-28T16:32:00.226Z,7.50
2022-08-28T16:34:31.383Z,5.70
2022-08-28T16:36:59.215Z,6.70
2022-08-28T16:39:26.899Z,6.37
2022-08-28T16:41:54.095Z,5.87
2022-08-28T16:44:22.816Z,4.83
2022-08-28T16:46:50.237Z,4.60
2022-08-28T16:49:17.892Z,4.27
2022-08-28T16:51:45.014Z,4.20
2022-08-28T16:54:12.157Z,4.07
2022-08-28T16:56:40.061Z,4.20
2022-08-28T16:59:10.460Z,3.60
2022-08-28T17:01:40.146Z,4.03
2022-08-28T17:04:09.677Z,3.37
2022-08-28T17:06:36.817Z,4.07
2022-08-28T17:09:03.744Z,3.47
2022-08-28T17:11:30.996Z,3.00
2022-08-28T17:13:58.797Z,3.60
2022-08-28T17:16:29.728Z,3.03
2022-08-28T17:18:56.951Z,3.53
2022-08-28T17:21:42.610Z,3.37
2022-08-28T17:24:14.459Z,4.63
2022-08-28T17:26:42.507Z,3.27
2022-08-28T17:29:09.922Z,3.13
2022-08-28T17:31:37.212Z,2.93
2022-08-28T17:34:07.401Z,2.40
2022-08-28T17:36:35.488Z,3.03
2022-08-28T17:39:04.126Z,2.47
2022-08-28T17:41:31.977Z,2.40
2022-08-28T17:44:01.779Z,2.80
2022-08-28T17:46:30.212Z,2.50
2022-08-28T17:49:00.376Z,2.30
2022-08-28T17:51:42.786Z,3.10
2022-08-28T17:54:18.294Z,2.77
2022-08-28T17:56:46.252Z,2.50
2022-08-28T17:59:14.222Z,2.83
2022-08-28T18:01:42.314Z,3.20
2022-08-28T18:04:09.254Z,2.93
2022-08-28T18:06:36.457Z,3.37
2022-08-28T18:09:04.448Z,3.20
2022-08-28T18:11:31.220Z,3.13
2022-08-28T18:13:59.693Z,3.77
2022-08-28T18:16:31.177Z,3.37
2022-08-28T18:19:01.880Z,3.13
2022-08-28T18:21:29.097Z,3.40
2022-08-28T18:23:56.252Z,3.37
2022-08-28T18:26:23.053Z,3.37
2022-08-28T18:28:50.396Z,3.90
2022-08-28T18:31:18.136Z,3.40
2022-08-28T18:33:46.569Z,3.53
2022-08-28T18:36:14.914Z,3.30
2022-08-28T18:38:43.188Z,3.57
2022-08-28T18:41:10.794Z,3.07
2022-08-28T18:43:37.845Z,5.50
2022-08-28T18:46:06.689Z,3.33
2022-08-28T18:48:33.557Z,3.50
2022-08-28T18:51:00.577Z,3.57
2022-08-28T18:53:28.830Z,5.40
2022-08-28T18:55:55.998Z,3.33
2022-08-28T18:58:23.612Z,3.50
2022-08-28T19:00:51.110Z,3.60
2022-08-28T19:03:17.834Z,4.47
2022-08-28T19:05:44.678Z,4.20
2022-08-28T19:08:11.572Z,3.43
2022-08-28T19:10:38.572Z,4.30
2022-08-28T19:13:06.411Z,3.50
2022-08-28T19:15:34.300Z,4.03
2022-08-28T19:18:01.565Z,3.17
2022-08-28T19:20:30.117Z,3.93
2022-08-28T19:22:57.430Z,4.00
2022-08-28T19:25:28.535Z,4.00
2022-08-28T19:28:06.441Z,4.00
2022-08-28T19:30:33.985Z,4.03
2022-08-28T19:33:02.398Z,5.70
2022-08-28T19:35:29.492Z,4.00
2022-08-28T19:37:56.470Z,3.97
2022-08-28T19:40:23.519Z,3.90
2022-08-28T19:42:50.504Z,5.40
2022-08-28T19:45:17.924Z,4.13
2022-08-28T19:47:45.540Z,3.93
2022-08-28T19:50:14.405Z,4.93
2022-08-28T19:52:41.752Z,4.50
2022-08-28T19:55:13.121Z,4.17
2022-08-28T19:57:39.848Z,5.00
2022-08-28T20:00:07.123Z,4.13
2022-08-28T20:02:34.078Z,4.93
2022-08-28T20:05:00.951Z,5.70
2022-08-28T20:07:27.728Z,6.43
2022-08-28T20:09:54.480Z,4.80
2022-08-28T20:12:21.207Z,4.50
2022-08-28T20:14:47.980Z,5.57
2022-08-28T20:17:14.810Z,5.10
2022-08-28T20:19:42.040Z,5.90
2022-08-28T20:22:09.032Z,5.20
2022-08-28T20:24:37.154Z,4.90
2022-08-28T20:27:03.968Z,5.20
2022-08-28T20:29:30.818Z,5.43
2022-08-28T20:31:57.598Z,6.10
2022-08-28T20:34:24.315Z,5.93
2022-08-28T20:36:51.556Z,5.57
2022-08-28T20:39:19.384Z,6.03
2022-08-28T20:41:49.265Z,6.07
2022-08-28T20:44:18.055Z,5.33
2022-08-28T20:46:47.133Z,5.50
2022-08-28T20:49:22.132Z,5.50
2022-08-28T20:52:15.861Z,5.23
2022-08-28T20:54:42.778Z,5.43
2022-08-28T20:57:11.721Z,6.57
2022-08-28T20:59:40.868Z,5.40
2022-08-28T21:02:15.050Z,5.63
2022-08-28T21:04:43.554Z,5.80
2022-08-28T21:07:12.230Z,6.33
2022-08-28T21:10:04.442Z,5.50
2022-08-28T21:12:25.796Z,5.83
2022-08-28T21:14:52.944Z,5.73
2022-08-28T21:17:29.624Z,5.17
2022-08-28T21:19:59.056Z,5.37
2022-08-28T21:22:25.769Z,6.13
2022-08-28T21:24:52.587Z,5.83
2022-08-28T21:27:19.294Z,5.50
2022-08-28T21:29:46.233Z,6.70
2022-08-28T21:32:12.999Z,6.33
2022-08-28T21:34:39.789Z,6.03
2022-08-28T21:37:06.606Z,6.57
2022-08-28T21:39:34.514Z,5.93
2022-08-28T21:42:01.303Z,6.13
2022-08-28T21:44:28.110Z,6.60
2022-08-28T21:46:54.904Z,6.63
2022-08-28T21:49:22.670Z,6.30
2022-08-28T21:51:50.104Z,6.10
2022-08-28T21:54:17.393Z,6.83
2022-08-28T21:56:44.296Z,6.83
2022-08-28T21:59:11.006Z,5.83
2022-08-28T22:01:38.048Z,6.40
2022-08-28T22:04:05.196Z,6.83
2022-08-28T22:06:32.061Z,6.90
2022-08-28T22:08:58.786Z,7.90
2022-08-28T22:11:26.830Z,6.87
2022-08-28T22:13:57.250Z,6.53
2022-08-28T22:16:25.412Z,6.87
2022-08-28T22:18:52.670Z,7.53
2022-08-28T22:21:42.262Z,6.43
2022-08-28T22:24:10.412Z,6.37
2022-08-28T22:26:37.691Z,6.60
2022-08-28T22:29:04.458Z,6.40
2022-08-28T22:31:31.627Z,7.10
2022-08-28T22:33:58.461Z,7.50
2022-08-28T22:36:25.239Z,6.10
2022-08-28T22:38:56.971Z,6.70
2022-08-28T22:41:24.370Z,6.10
2022-08-28T22:43:52.990Z,7.10
2022-08-28T22:46:20.637Z,6.70
2022-08-28T22:48:48.141Z,7.20
2022-08-28T22:51:18.502Z,6.53
2022-08-28T22:53:46.725Z,8.50
2022-08-28T22:56:14.412Z,6.73
2022-08-28T22:58:41.290Z,8.83
2022-08-28T23:01:17.209Z,7.10
2022-08-28T23:03:45.093Z,6.57
2022-08-28T23:06:12.251Z,6.67
2022-08-28T23:08:38.977Z,8.03
2022-08-28T23:11:06.303Z,6.63
2022-08-28T23:13:33.145Z,9.27
2022-08-28T23:16:00.366Z,10.07
2022-08-28T23:18:27.817Z,7.83
2022-08-28T23:20:55.198Z,9.30
2022-08-28T23:23:23.391Z,7.13
2022-08-28T23:25:50.537Z,7.47
2022-08-28T23:28:18.505Z,7.20
2022-08-28T23:30:48.397Z,7.80
2022-08-28T23:33:23.653Z,8.10
2022-08-28T23:35:51.686Z,7.13
2022-08-28T23:38:18.528Z,8.27
2022-08-28T23:40:48.018Z,8.40
2022-08-28T23:43:15.156Z,7.20
2022-08-28T23:45:43.731Z,6.10
2022-08-28T23:48:11.349Z,9.47
2022-08-28T23:50:41.457Z,7.00
2022-08-28T23:53:08.823Z,8.80
2022-08-28T23:55:36.688Z,6.50
2022-08-28T23:58:04.063Z,7.20
